Holy Cross, Alaska
Current Conditions -  °F | °C
As of 12:56 AM on Saturday 29 Nov 2014 (Local Time) from PAHC Reporting Station
Overcast Overcast  
Wind Chill: 18°   Ceiling: 900
Heat Index: 18°   Visibility: 10mi
Dew Point: 14°   Wind: 0mph
Humidity: 84%   Direction: NA
Pressure: 30.14"   Gusts: NA
Location:  62.2°N, 159.77°W
Report Text: PAHC 290956Z AUTO 00000KT 10SM OVC009 M08/M10 A3014 RMK AO2 TSNO T10771100 SLP211 $
Loading
Personal Weather Stations






























Interactive Weather Map New forecast layout! Learn more

10-Day Weather Forecast

Advertisements
Track Severe Weather on mobile